Time;durP1;ratioP1;P1;durP2;ratioP2;P2;SDS_P1;SDS_P2;PMS_P1;PMS_P2;Temp;Humidity;BMP_temperature;BMP_pressure;BME280_temperature;BME280_humidity;BME280_pressure;Samples;Min_cycle;Max_cycle;Signal;HPM_P1;HPM_P2
2022/10/16 00:00:40;;;;;;;4.85;2.53;;;19.60;66.50;;;;;;6236308;22;20035;-75
2022/10/16 00:03:06;;;;;;;3.67;2.30;;;19.60;66.50;;;;;;6264770;22;20026;-75
2022/10/16 00:05:32;;;;;;;3.72;2.30;;;19.60;66.50;;;;;;6261698;22;20107;-76
2022/10/16 00:07:57;;;;;;;4.30;2.17;;;19.60;66.50;;;;;;6264857;22;20341;-74
2022/10/16 00:10:23;;;;;;;3.65;2.22;;;19.60;66.50;;;;;;6262989;22;20063;-75
2022/10/16 00:12:49;;;;;;;2.90;2.15;;;19.60;66.40;;;;;;6263771;22;20012;-75
2022/10/16 00:15:15;;;;;;;4.40;2.50;;;19.50;66.30;;;;;;6236523;22;20019;-75
2022/10/16 00:17:40;;;;;;;3.45;1.90;;;19.50;66.30;;;;;;6237623;22;20091;-75
2022/10/16 00:20:07;;;;;;;4.38;2.30;;;19.50;66.30;;;;;;6263949;22;20019;-76
2022/10/16 00:22:33;;;;;;;5.15;2.28;;;19.50;66.30;;;;;;6264610;22;20433;-76
2022/10/16 00:24:58;;;;;;;4.32;2.63;;;19.60;67.10;;;;;;6264272;22;20320;-79
2022/10/16 00:27:24;;;;;;;3.65;2.22;;;19.50;66.20;;;;;;6263171;22;20016;-77
2022/10/16 00:29:51;;;;;;;3.50;2.33;;;19.50;66.30;;;;;;6264892;22;20416;-78
2022/10/16 00:32:17;;;;;;;7.28;2.10;;;19.60;66.30;;;;;;6235690;22;20702;-78
2022/10/16 00:34:43;;;;;;;4.60;2.25;;;19.50;66.20;;;;;;6263861;22;20018;-78
2022/10/16 00:37:09;;;;;;;5.47;2.10;;;19.50;66.20;;;;;;6262805;22;20019;-78
2022/10/16 00:39:34;;;;;;;6.25;2.30;;;19.50;66.20;;;;;;6236113;22;20396;-77
2022/10/16 00:42:00;;;;;;;3.92;2.20;;;19.50;66.10;;;;;;6262484;22;20034;-77
2022/10/16 00:44:46;;;;;;;3.53;1.95;;;19.50;66.10;;;;;;6262668;22;20020;-77
2022/10/16 00:47:34;;;;;;;3.72;2.20;;;19.50;66.00;;;;;;6264067;22;20019;-77
2022/10/16 00:50:13;;;;;;;3.08;2.28;;;19.50;66.10;;;;;;6235167;22;20447;-76
2022/10/16 00:52:44;;;;;;;3.75;2.03;;;19.50;66.10;;;;;;6264222;22;20101;-79
2022/10/16 00:55:10;;;;;;;3.13;2.13;;;19.50;66.10;;;;;;6261848;22;20024;-75
2022/10/16 00:57:37;;;;;;;5.90;2.22;;;19.50;66.10;;;;;;6235700;22;20016;-77
2022/10/16 01:00:06;;;;;;;3.35;2.17;;;19.50;66.00;;;;;;6264126;22;20110;-77
2022/10/16 01:02:32;;;;;;;4.63;2.20;;;19.50;66.00;;;;;;6234975;22;20053;-75
2022/10/16 01:04:58;;;;;;;4.18;2.10;;;19.50;66.00;;;;;;6264221;22;20527;-75
2022/10/16 01:08:01;;;;;;;4.57;2.00;;;19.50;65.90;;;;;;6263220;22;20016;-76
2022/10/16 01:10:40;;;;;;;3.33;1.95;;;19.50;65.90;;;;;;6263284;22;20050;-76
2022/10/16 01:13:09;;;;;;;3.05;2.20;;;19.50;65.90;;;;;;6264158;22;20020;-75
2022/10/16 01:15:42;;;;;;;3.55;2.10;;;19.50;65.90;;;;;;6263011;22;20045;-76
2022/10/16 01:18:22;;;;;;;4.15;2.20;;;19.40;65.80;;;;;;6237894;22;20096;-75
2022/10/16 01:20:59;;;;;;;3.20;2.03;;;19.50;65.80;;;;;;6235754;22;20642;-75
2022/10/16 01:23:24;;;;;;;3.63;2.08;;;19.50;65.80;;;;;;6263996;22;20018;-75
2022/10/16 01:26:08;;;;;;;3.50;2.15;;;19.50;65.80;;;;;;6236202;22;20065;-76
2022/10/16 01:28:45;;;;;;;3.33;2.17;;;19.50;65.70;;;;;;6236039;22;20027;-75
2022/10/16 01:31:13;;;;;;;5.68;2.20;;;19.50;65.70;;;;;;6263808;22;20026;-75
2022/10/16 01:33:46;;;;;;;3.22;2.15;;;19.40;65.60;;;;;;6263068;22;20490;-78
2022/10/16 01:36:23;;;;;;;4.80;2.17;;;19.40;65.60;;;;;;6264371;22;20398;-76
2022/10/16 01:38:52;;;;;;;3.28;1.88;;;19.50;65.60;;;;;;6262272;22;20130;-77
2022/10/16 01:41:27;;;;;;;2.00;1.67;;;19.40;65.60;;;;;;6263477;22;20112;-78
2022/10/16 01:44:10;;;;;;;4.75;2.00;;;19.50;65.60;;;;;;6264064;22;20031;-77
2022/10/16 01:46:39;;;;;;;5.75;2.28;;;19.50;65.60;;;;;;6262030;22;20521;-78
2022/10/16 01:49:08;;;;;;;3.83;2.42;;;19.50;65.60;;;;;;6266378;22;20489;-79
2022/10/16 01:51:35;;;;;;;3.47;1.83;;;19.50;65.60;;;;;;6264121;22;20027;-78
2022/10/16 01:54:03;;;;;;;4.28;1.90;;;19.50;65.60;;;;;;6263682;22;20408;-79
2022/10/16 01:56:29;;;;;;;3.03;1.70;;;19.50;65.50;;;;;;6264024;22;20022;-78
2022/10/16 01:59:01;;;;;;;2.65;2.10;;;19.50;65.50;;;;;;6238217;22;20387;-78
2022/10/16 02:01:31;;;;;;;2.28;1.77;;;19.50;65.50;;;;;;6261821;22;20403;-78
2022/10/16 02:04:01;;;;;;;3.80;2.08;;;19.50;65.40;;;;;;6211627;22;20020;-78
2022/10/16 02:06:27;;;;;;;3.92;2.00;;;19.60;65.40;;;;;;6236943;22;20030;-77
2022/10/16 02:08:53;;;;;;;3.42;1.90;;;19.60;65.40;;;;;;6263133;22;20027;-78
2022/10/16 02:11:19;;;;;;;2.42;1.67;;;19.60;65.30;;;;;;6237859;22;20055;-78
2022/10/16 02:14:00;;;;;;;2.97;2.03;;;19.50;65.20;;;;;;6236142;22;20019;-77
2022/10/16 02:16:34;;;;;;;4.35;1.90;;;19.60;65.20;;;;;;6264060;22;20054;-78
2022/10/16 02:19:00;;;;;;;3.17;1.67;;;19.60;65.10;;;;;;6236629;22;20012;-76
2022/10/16 02:21:29;;;;;;;6.78;2.20;;;19.50;65.10;;;;;;6236360;22;20023;-78
2022/10/16 02:24:23;;;;;;;3.75;2.20;;;19.60;65.10;;;;;;6233892;22;20065;-78
2022/10/16 02:26:56;;;;;;;4.38;1.90;;;19.60;65.00;;;;;;6263100;22;20020;-79
2022/10/16 02:29:25;;;;;;;3.13;1.92;;;19.50;65.00;;;;;;6263516;22;20023;-76
2022/10/16 02:31:55;;;;;;;4.75;1.95;;;19.50;64.90;;;;;;6260262;22;20297;-77
2022/10/16 02:34:23;;;;;;;5.15;2.10;;;19.50;64.90;;;;;;6263279;22;20499;-78
2022/10/16 02:36:50;;;;;;;3.95;2.00;;;19.40;64.70;;;;;;6261875;22;20027;-77
2022/10/16 02:39:17;;;;;;;3.88;2.05;;;19.50;64.80;;;;;;6262655;22;20679;-78
2022/10/16 02:41:43;;;;;;;4.75;2.15;;;19.50;64.80;;;;;;6262963;22;20012;-77
2022/10/16 02:44:09;;;;;;;3.10;1.98;;;19.50;64.80;;;;;;6262638;22;20451;-77
2022/10/16 02:46:34;;;;;;;4.68;2.13;;;19.50;64.70;;;;;;6235887;22;20031;-75
2022/10/16 02:49:00;;;;;;;3.05;2.00;;;19.50;64.80;;;;;;6262321;22;20526;-76
2022/10/16 02:51:25;;;;;;;2.80;1.77;;;19.50;64.70;;;;;;6235352;22;20105;-79
2022/10/16 02:53:51;;;;;;;4.55;1.60;;;19.50;64.60;;;;;;6233833;22;20426;-75
2022/10/16 02:56:17;;;;;;;2.83;1.98;;;19.50;64.60;;;;;;6263923;22;20532;-76
2022/10/16 02:58:42;;;;;;;4.47;1.88;;;19.50;64.60;;;;;;6263528;22;20043;-77
2022/10/16 03:01:08;;;;;;;3.45;2.08;;;19.50;64.60;;;;;;6234263;22;20022;-77
2022/10/16 03:03:33;;;;;;;3.38;1.80;;;19.50;64.60;;;;;;6263269;22;20297;-76
2022/10/16 03:05:59;;;;;;;2.72;1.58;;;19.40;64.50;;;;;;6262156;22;20583;-75
2022/10/16 03:08:25;;;;;;;3.20;1.70;;;19.50;64.50;;;;;;6263226;22;20015;-75
2022/10/16 03:10:51;;;;;;;4.53;1.80;;;19.50;64.50;;;;;;6262000;22;20020;-78
2022/10/16 03:13:17;;;;;;;3.55;1.73;;;19.50;64.50;;;;;;6235135;22;20165;-77
2022/10/16 03:15:43;;;;;;;4.30;1.88;;;19.40;64.40;;;;;;6261679;22;20422;-75
2022/10/16 03:18:09;;;;;;;2.45;1.80;;;19.50;64.50;;;;;;6264026;22;20043;-77
2022/10/16 03:20:34;;;;;;;3.03;1.80;;;19.50;64.40;;;;;;6263225;22;20012;-76
2022/10/16 03:23:00;;;;;;;2.03;1.70;;;19.40;64.40;;;;;;6235680;22;20023;-77
2022/10/16 03:25:25;;;;;;;2.13;1.77;;;19.50;64.40;;;;;;6262763;22;20018;-76
2022/10/16 03:27:51;;;;;;;2.70;1.75;;;19.50;64.40;;;;;;6234092;22;20099;-76
2022/10/16 03:30:17;;;;;;;1.90;1.70;;;19.50;64.40;;;;;;6263421;22;20747;-76
2022/10/16 03:32:44;;;;;;;2.15;1.73;;;19.50;64.30;;;;;;6261276;22;20069;-76
2022/10/16 03:35:10;;;;;;;3.90;2.13;;;19.50;64.30;;;;;;6263415;22;20460;-76
2022/10/16 03:37:36;;;;;;;3.85;2.13;;;19.40;64.30;;;;;;6261472;22;20022;-79
2022/10/16 03:40:02;;;;;;;3.15;1.67;;;19.40;64.20;;;;;;6262044;22;20011;-79
2022/10/16 03:42:28;;;;;;;4.55;1.85;;;19.40;64.20;;;;;;6234652;22;20066;-79
2022/10/16 03:44:53;;;;;;;3.03;2.08;;;19.40;64.20;;;;;;6262743;22;20436;-77
2022/10/16 03:47:21;;;;;;;2.65;1.85;;;19.50;64.40;;;;;;6263373;22;20055;-76
2022/10/16 03:49:47;;;;;;;1.98;1.55;;;19.50;64.20;;;;;;6235075;22;20359;-79
2022/10/16 03:52:13;;;;;;;2.97;1.70;;;19.40;64.10;;;;;;6236307;22;20016;-80
2022/10/16 03:54:39;;;;;;;2.58;1.77;;;19.40;64.20;;;;;;6261005;22;20069;-79
2022/10/16 03:57:05;;;;;;;4.50;1.83;;;19.50;64.20;;;;;;6262302;22;20024;-78
2022/10/16 03:59:30;;;;;;;2.08;1.58;;;19.50;64.10;;;;;;6233912;22;20055;-75
2022/10/16 04:01:56;;;;;;;2.65;1.83;;;19.40;64.10;;;;;;6235081;22;20274;-80
2022/10/16 04:04:22;;;;;;;1.92;1.63;;;19.40;64.10;;;;;;6265017;22;20011;-80
2022/10/16 04:06:47;;;;;;;2.45;1.50;;;19.40;64.00;;;;;;6210615;22;20145;-76
2022/10/16 04:09:13;;;;;;;3.85;1.80;;;19.40;64.00;;;;;;6264375;22;20064;-79
2022/10/16 04:11:38;;;;;;;1.83;1.50;;;19.50;64.10;;;;;;6262998;22;20431;-80
2022/10/16 04:14:04;;;;;;;3.38;2.00;;;19.40;64.00;;;;;;6265031;22;20505;-78
2022/10/16 04:16:30;;;;;;;3.38;1.90;;;19.40;64.00;;;;;;6235723;22;20142;-78
2022/10/16 04:18:55;;;;;;;4.22;1.90;;;19.40;63.90;;;;;;6238091;22;20043;-76
2022/10/16 04:21:22;;;;;;;3.25;1.60;;;19.50;64.00;;;;;;6236247;22;20027;-78
2022/10/16 04:23:47;;;;;;;2.67;1.70;;;19.40;64.00;;;;;;6262727;22;20082;-76
2022/10/16 04:26:13;;;;;;;2.03;1.67;;;19.50;64.00;;;;;;6236286;22;20024;-78
2022/10/16 04:28:38;;;;;;;1.85;1.58;;;19.40;63.90;;;;;;6235883;22;20020;-75
2022/10/16 04:31:05;;;;;;;3.75;1.77;;;19.40;63.90;;;;;;6263588;22;20020;-78
2022/10/16 04:33:31;;;;;;;2.13;1.63;;;19.40;63.90;;;;;;6235162;22;20023;-79
2022/10/16 04:35:58;;;;;;;2.20;1.40;;;19.50;64.00;;;;;;6263998;22;20722;-77
2022/10/16 04:38:23;;;;;;;2.20;1.80;;;19.40;63.90;;;;;;6235590;22;20383;-76
2022/10/16 04:40:49;;;;;;;3.55;1.77;;;19.40;63.90;;;;;;6263551;22;20016;-77
2022/10/16 04:43:15;;;;;;;2.42;1.70;;;19.40;63.80;;;;;;6261838;22;20019;-79
2022/10/16 04:45:40;;;;;;;2.72;1.60;;;19.40;63.80;;;;;;6262905;22;20365;-74
2022/10/16 04:48:06;;;;;;;2.33;1.50;;;19.40;63.80;;;;;;6265368;22;20464;-79
2022/10/16 04:50:31;;;;;;;2.40;1.50;;;19.40;63.80;;;;;;6262082;22;20304;-78
2022/10/16 04:52:57;;;;;;;2.85;1.80;;;19.40;63.80;;;;;;6265073;22;20020;-77
2022/10/16 04:55:22;;;;;;;3.63;1.60;;;19.40;63.80;;;;;;6261601;22;20426;-77
2022/10/16 04:57:48;;;;;;;3.40;1.80;;;19.40;63.90;;;;;;6264003;22;20455;-78
2022/10/16 05:00:14;;;;;;;1.98;1.50;;;19.40;63.80;;;;;;6234145;22;20030;-75
2022/10/16 05:02:39;;;;;;;2.20;1.70;;;19.40;63.80;;;;;;6263883;22;20099;-79
2022/10/16 05:05:05;;;;;;;2.13;1.60;;;19.40;63.80;;;;;;6263451;22;20112;-77
2022/10/16 05:07:31;;;;;;;1.58;1.40;;;19.40;63.80;;;;;;6262532;22;20052;-76
2022/10/16 05:09:56;;;;;;;3.85;1.80;;;19.40;63.80;;;;;;6235429;22;20541;-79
2022/10/16 05:12:22;;;;;;;2.10;1.80;;;19.40;63.80;;;;;;6262683;22;20019;-77
2022/10/16 05:14:47;;;;;;;1.88;1.63;;;19.40;63.80;;;;;;6234678;22;20028;-74
2022/10/16 05:17:13;;;;;;;2.78;1.60;;;19.40;63.80;;;;;;6262177;22;20025;-74
2022/10/16 05:19:38;;;;;;;3.85;1.60;;;19.40;64.50;;;;;;6263541;22;20011;-76
2022/10/16 05:22:04;;;;;;;3.45;1.58;;;19.40;63.90;;;;;;6233737;22;20043;-76
2022/10/16 05:24:30;;;;;;;4.50;1.70;;;19.40;63.70;;;;;;6235701;22;20023;-75
2022/10/16 05:26:55;;;;;;;2.38;1.75;;;19.40;63.70;;;;;;6260046;22;20505;-77
2022/10/16 05:29:21;;;;;;;2.15;1.58;;;19.40;63.70;;;;;;6234440;22;20052;-76
2022/10/16 05:31:49;;;;;;;2.20;1.58;;;19.40;63.70;;;;;;6262887;22;20038;-77
2022/10/16 05:34:14;;;;;;;4.65;1.45;;;19.40;63.70;;;;;;6262147;22;20018;-76
2022/10/16 05:36:40;;;;;;;2.63;1.50;;;19.40;63.70;;;;;;6263490;22;20393;-77
2022/10/16 05:39:06;;;;;;;2.30;1.38;;;19.40;63.70;;;;;;6231192;22;20625;-77
2022/10/16 05:41:31;;;;;;;2.95;1.48;;;19.40;63.70;;;;;;6262023;22;20455;-76
2022/10/16 05:43:57;;;;;;;2.08;1.50;;;19.40;63.70;;;;;;6260931;22;20104;-76
2022/10/16 05:46:22;;;;;;;2.08;1.42;;;19.40;63.70;;;;;;6260353;22;20016;-76
2022/10/16 05:48:48;;;;;;;2.67;1.73;;;19.40;63.70;;;;;;6262541;22;20761;-76
2022/10/16 05:51:14;;;;;;;1.60;1.40;;;19.40;63.70;;;;;;6263143;22;20027;-76
2022/10/16 05:53:42;;;;;;;2.00;1.60;;;19.40;63.70;;;;;;6262733;22;20016;-77
2022/10/16 05:56:11;;;;;;;2.63;1.60;;;19.40;63.70;;;;;;6262967;22;20011;-76
2022/10/16 05:58:40;;;;;;;1.80;1.50;;;19.40;63.70;;;;;;6263383;22;20046;-76
2022/10/16 06:01:15;;;;;;;2.05;1.38;;;19.40;63.70;;;;;;6261323;22;20094;-75
2022/10/16 06:03:41;;;;;;;2.28;1.58;;;19.40;63.60;;;;;;6234263;22;20130;-75
2022/10/16 06:06:20;;;;;;;1.42;1.30;;;19.40;63.70;;;;;;6260679;22;20103;-76
2022/10/16 06:08:47;;;;;;;1.98;1.42;;;19.40;63.60;;;;;;6262363;22;20059;-74
2022/10/16 06:11:19;;;;;;;2.67;1.67;;;19.30;63.60;;;;;;6256911;22;20012;-75
2022/10/16 06:13:48;;;;;;;2.83;1.70;;;19.40;63.60;;;;;;6262498;22;20011;-75
2022/10/16 06:16:14;;;;;;;1.88;1.50;;;19.40;63.60;;;;;;6235737;22;20019;-75
2022/10/16 06:18:39;;;;;;;2.20;1.70;;;19.40;63.60;;;;;;6261496;22;20336;-75
2022/10/16 06:21:11;;;;;;;2.58;1.70;;;19.40;63.70;;;;;;6235735;22;20066;-77
2022/10/16 06:23:37;;;;;;;4.95;1.60;;;19.40;63.70;;;;;;6233353;22;20381;-76
2022/10/16 06:26:12;;;;;;;1.63;1.42;;;19.40;63.80;;;;;;6235183;22;20055;-76
2022/10/16 06:28:38;;;;;;;4.57;1.60;;;19.30;63.70;;;;;;6261898;22;20023;-77
2022/10/16 06:31:05;;;;;;;3.05;1.38;;;19.40;63.90;;;;;;6234967;22;20023;-76
2022/10/16 06:33:30;;;;;;;5.32;1.80;;;19.30;64.00;;;;;;6264775;22;20051;-74
2022/10/16 06:36:05;;;;;;;3.90;1.50;;;19.40;64.00;;;;;;6262013;22;20074;-80
2022/10/16 06:38:31;;;;;;;3.13;1.70;;;19.40;64.50;;;;;;6236167;22;20024;-76
2022/10/16 06:40:56;;;;;;;2.58;1.48;;;19.40;64.90;;;;;;6235370;22;20042;-81
2022/10/16 06:43:22;;;;;;;3.03;1.52;;;19.40;64.60;;;;;;6264799;22;20007;-78
2022/10/16 06:45:56;;;;;;;6.65;1.38;;;19.40;64.40;;;;;;6235810;22;20321;-77
2022/10/16 06:48:22;;;;;;;5.78;1.50;;;19.50;64.40;;;;;;6212103;22;20023;-78
2022/10/16 06:51:01;;;;;;;8.15;1.63;;;19.50;64.40;;;;;;6210434;22;20096;-77
2022/10/16 06:53:29;;;;;;;2.15;1.70;;;19.50;64.40;;;;;;6234273;22;20021;-79
2022/10/16 06:55:54;;;;;;;5.57;1.80;;;19.50;64.50;;;;;;6262883;22;20109;-76
2022/10/16 06:58:20;;;;;;;6.38;1.60;;;19.50;64.50;;;;;;6234594;22;20324;-78
2022/10/16 07:00:46;;;;;;;6.65;1.42;;;19.50;64.50;;;;;;6236271;22;20138;-76
2022/10/16 07:03:12;;;;;;;5.22;1.73;;;19.50;64.60;;;;;;6261754;22;20502;-80
2022/10/16 07:05:42;;;;;;;3.22;1.60;;;19.50;64.70;;;;;;6234318;22;20039;-79
2022/10/16 07:08:08;;;;;;;6.05;1.75;;;19.50;64.90;;;;;;6234209;22;20024;-82
2022/10/16 07:10:35;;;;;;;6.30;1.90;;;19.50;65.10;;;;;;6233585;22;20043;-81
2022/10/16 07:13:01;;;;;;;6.05;1.90;;;19.50;66.10;;;;;;6235681;22;20016;-79
2022/10/16 07:15:27;;;;;;;7.38;2.03;;;19.60;65.50;;;;;;6260519;22;20058;-78
2022/10/16 07:17:52;;;;;;;7.07;2.00;;;19.50;65.60;;;;;;6264324;22;20451;-79
2022/10/16 07:20:19;;;;;;;6.22;1.98;;;19.60;65.70;;;;;;6235273;22;20012;-79
2022/10/16 07:22:44;;;;;;;6.22;2.00;;;19.60;65.80;;;;;;6236265;22;20467;-79
2022/10/16 07:25:10;;;;;;;5.80;2.10;;;19.60;65.90;;;;;;6262368;22;20130;-79
2022/10/16 07:27:36;;;;;;;4.43;1.88;;;19.60;65.90;;;;;;6235154;22;20023;-78
2022/10/16 07:30:03;;;;;;;6.47;2.05;;;19.60;65.90;;;;;;6235437;22;20439;-74
2022/10/16 07:32:29;;;;;;;4.13;2.45;;;19.60;65.90;;;;;;6234977;22;20081;-78
2022/10/16 07:34:55;;;;;;;3.40;1.63;;;19.60;66.00;;;;;;6262052;22;20012;-81
2022/10/16 07:37:21;;;;;;;2.58;2.00;;;19.60;66.00;;;;;;6235890;22;20063;-74
2022/10/16 07:39:47;;;;;;;3.58;2.00;;;19.70;66.00;;;;;;6263801;22;20055;-77
2022/10/16 07:42:12;;;;;;;4.25;1.90;;;19.70;66.00;;;;;;6263202;22;20031;-78
2022/10/16 07:44:38;;;;;;;5.50;1.70;;;19.70;66.00;;;;;;6238440;22;20027;-78
2022/10/16 07:47:03;;;;;;;4.47;2.17;;;19.70;66.10;;;;;;6236906;22;20015;-78
2022/10/16 07:49:29;;;;;;;3.63;1.80;;;19.70;66.00;;;;;;6266640;22;20086;-78
2022/10/16 07:51:54;;;;;;;2.05;1.70;;;19.70;66.80;;;;;;6262759;22;20016;-81
2022/10/16 07:54:20;;;;;;;2.90;1.80;;;19.70;66.00;;;;;;6237860;22;20048;-80
2022/10/16 07:56:45;;;;;;;4.80;2.00;;;19.70;66.00;;;;;;6263903;22;20528;-79
2022/10/16 07:59:14;;;;;;;9.13;1.90;;;19.70;66.00;;;;;;6236827;22;20077;-79
2022/10/16 08:01:41;;;;;;;9.30;1.88;;;19.70;66.00;;;;;;6237077;22;20027;-78
2022/10/16 08:04:08;;;;;;;4.80;2.03;;;19.70;66.00;;;;;;6235172;22;20416;-78
2022/10/16 08:06:39;;;;;;;3.10;1.70;;;19.80;66.00;;;;;;6264238;22;20485;-78
2022/10/16 08:09:05;;;;;;;4.28;1.98;;;19.80;65.90;;;;;;6234816;22;20039;-78
2022/10/16 08:11:31;;;;;;;5.50;1.70;;;19.80;65.70;;;;;;6264265;22;20590;-76
2022/10/16 08:13:57;;;;;;;3.60;2.00;;;19.80;65.70;;;;;;6234534;22;20050;-78
2022/10/16 08:16:23;;;;;;;2.38;1.80;;;19.80;65.60;;;;;;6236353;22;20030;-76
2022/10/16 08:18:50;;;;;;;6.28;2.00;;;19.80;65.60;;;;;;6234880;22;20023;-75
2022/10/16 08:21:18;;;;;;;2.53;1.70;;;19.80;66.30;;;;;;6236667;22;20027;-76
2022/10/16 08:23:44;;;;;;;3.00;1.77;;;19.80;65.60;;;;;;6261203;22;20027;-75
2022/10/16 08:26:10;;;;;;;5.53;1.70;;;19.90;65.60;;;;;;6234252;22;20065;-75
2022/10/16 08:28:36;;;;;;;4.53;1.83;;;19.90;65.60;;;;;;6261893;22;20136;-73
2022/10/16 08:31:11;;;;;;;7.90;1.60;;;19.90;65.60;;;;;;6234116;22;20093;-73
2022/10/16 08:33:38;;;;;;;4.25;1.73;;;19.90;65.60;;;;;;6210562;22;20118;-74
2022/10/16 08:36:05;;;;;;;5.50;1.63;;;19.90;65.60;;;;;;6234082;22;20054;-75
2022/10/16 08:38:30;;;;;;;11.45;2.40;;;20.00;65.70;;;;;;6235797;22;20139;-76
2022/10/16 08:41:33;;;;;;;5.75;1.80;;;20.00;65.70;;;;;;6263022;22;20035;-76
2022/10/16 08:44:32;;;;;;;16.95;2.08;;;20.10;65.70;;;;;;6235331;22;20530;-80
2022/10/16 08:47:22;;;;;;;2.88;1.50;;;20.10;65.70;;;;;;6208477;22;20023;-76
2022/10/16 08:50:01;;;;;;;2.40;1.70;;;20.10;65.70;;;;;;6209437;22;20514;-77
2022/10/16 08:52:35;;;;;;;5.03;1.73;;;20.20;65.70;;;;;;6234309;22;20015;-75
2022/10/16 08:55:01;;;;;;;6.97;1.73;;;20.20;65.60;;;;;;6262250;22;20507;-73
2022/10/16 08:57:28;;;;;;;4.43;1.75;;;20.20;65.60;;;;;;6261511;22;20023;-75
2022/10/16 09:00:00;;;;;;;2.30;1.60;;;20.30;65.60;;;;;;6262296;22;20030;-74
2022/10/16 09:02:25;;;;;;;6.57;2.13;;;20.20;65.60;;;;;;6235382;22;20774;-75
2022/10/16 09:05:42;;;;;;;2.58;1.50;;;20.30;65.60;;;;;;6233085;22;20030;-73
2022/10/16 09:08:30;;;;;;;1.85;1.40;;;20.30;65.50;;;;;;6230416;23;20452;-74
2022/10/16 09:10:55;;;;;;;6.27;1.70;;;20.30;65.50;;;;;;6230545;23;20542;-76
2022/10/16 09:13:27;;;;;;;4.78;1.55;;;20.40;65.50;;;;;;6230216;23;20722;-80
2022/10/16 09:16:22;;;;;;;3.97;1.50;;;20.40;65.50;;;;;;6230439;23;20020;-79
2022/10/16 09:18:58;;;;;;;4.28;1.63;;;20.40;65.40;;;;;;6232256;22;20026;-78
2022/10/16 09:21:28;;;;;;;2.85;1.55;;;20.50;65.40;;;;;;6232380;23;20027;-79
2022/10/16 09:23:56;;;;;;;4.47;1.60;;;20.50;65.40;;;;;;6232035;22;20309;-78
2022/10/16 09:26:22;;;;;;;4.18;1.45;;;20.50;65.40;;;;;;6231501;23;20594;-76
2022/10/16 09:28:48;;;;;;;4.03;1.55;;;20.50;65.30;;;;;;6233369;23;20016;-77
2022/10/16 09:31:17;;;;;;;6.15;1.50;;;20.50;65.30;;;;;;6233162;23;20027;-77
2022/10/16 09:33:45;;;;;;;16.23;1.60;;;20.50;65.30;;;;;;6234234;22;20102;-81
2022/10/16 09:36:12;;;;;;;5.30;1.83;;;20.60;65.30;;;;;;6232756;22;20050;-79
2022/10/16 09:38:38;;;;;;;2.53;1.58;;;20.50;65.30;;;;;;6233302;22;20373;-77
2022/10/16 09:41:26;;;;;;;3.65;1.50;;;20.60;65.40;;;;;;6231187;23;20020;-76
2022/10/16 09:43:56;;;;;;;2.25;1.40;;;20.70;65.60;;;;;;6222257;23;20096;-75
2022/10/16 09:46:24;;;;;;;2.78;1.50;;;20.60;65.60;;;;;;6223946;23;20020;-76
2022/10/16 09:48:53;;;;;;;1.83;1.10;;;20.70;65.70;;;;;;6225310;22;20019;-75
2022/10/16 09:51:25;;;;;;;2.40;1.52;;;20.70;65.70;;;;;;6225653;23;20117;-76
2022/10/16 09:53:56;;;;;;;2.88;1.50;;;20.70;65.70;;;;;;6225873;23;20020;-76
2022/10/16 09:56:24;;;;;;;4.15;1.70;;;20.70;65.60;;;;;;6231248;23;20446;-79
2022/10/16 09:58:52;;;;;;;;;;;20.80;65.70;;;;;;6227840;22;20020;-79
2022/10/16 10:01:18;;;;;;;9.03;1.90;;;20.80;65.60;;;;;;6231117;22;20352;-78
2022/10/16 10:03:46;;;;;;;3.97;1.55;;;20.70;65.50;;;;;;6225776;23;20369;-75
2022/10/16 10:06:34;;;;;;;3.45;1.52;;;20.80;65.50;;;;;;6224557;23;20111;-81
2022/10/16 10:09:03;;;;;;;;;;;20.80;65.20;;;;;;6229092;22;20024;-78
2022/10/16 10:11:53;;;;;;;3.63;1.52;;;20.80;65.30;;;;;;6223373;23;19998;-76
2022/10/16 10:14:36;;;;;;;4.45;1.52;;;20.80;65.30;;;;;;6226241;23;20030;-76
2022/10/16 10:17:04;;;;;;;5.90;1.60;;;20.80;65.30;;;;;;6226767;22;20360;-76
2022/10/16 10:19:37;;;;;;;4.85;1.50;;;20.70;65.10;;;;;;6225632;23;20016;-77
2022/10/16 10:22:19;;;;;;;5.22;1.73;;;20.80;65.20;;;;;;6229000;22;20048;-75
2022/10/16 10:24:55;;;;;;;6.95;1.60;;;20.70;65.10;;;;;;6225478;23;20019;-78
2022/10/16 10:27:27;;;;;;;3.05;1.55;;;20.80;65.10;;;;;;6228160;22;20673;-76
2022/10/16 10:30:10;;;;;;;6.45;1.70;;;20.80;65.20;;;;;;6226517;22;20440;-76
2022/10/16 10:32:42;;;;;;;9.52;1.58;;;20.80;65.10;;;;;;6228549;22;20020;-75
2022/10/16 10:35:50;;;;;;;7.28;1.63;;;20.80;65.10;;;;;;6227075;22;20028;-74
2022/10/16 10:38:29;;;;;;;4.43;1.80;;;20.80;65.10;;;;;;6204214;22;20020;-77
2022/10/16 10:41:28;;;;;;;5.13;1.77;;;20.80;65.00;;;;;;6229000;22;20526;-75
2022/10/16 10:44:38;;;;;;;7.47;1.70;;;20.80;64.80;;;;;;6228011;23;20019;-76
2022/10/16 10:47:25;;;;;;;5.57;1.95;;;20.80;64.80;;;;;;6100800;23;20161;-76
2022/10/16 10:50:06;;;;;;;5.55;1.73;;;20.80;64.80;;;;;;6228126;22;20089;-75
2022/10/16 10:52:33;;;;;;;5.28;2.08;;;20.80;64.80;;;;;;6227377;23;20087;-74
2022/10/16 10:55:26;;;;;;;6.35;1.70;;;20.80;64.80;;;;;;6224799;22;20019;-75
2022/10/16 10:58:10;;;;;;;3.25;1.35;;;20.80;64.80;;;;;;6226181;23;20189;-77
2022/10/16 11:00:44;;;;;;;5.32;1.65;;;20.80;64.70;;;;;;6225411;23;20479;-79
2022/10/16 11:03:21;;;;;;;4.65;1.63;;;20.80;64.50;;;;;;6225376;23;20035;-75
2022/10/16 11:05:56;;;;;;;5.97;1.75;;;20.80;64.40;;;;;;6228192;22;20086;-73
2022/10/16 11:08:43;;;;;;;5.18;1.45;;;20.80;64.30;;;;;;6249878;22;20024;-74
2022/10/16 11:11:22;;;;;;;6.13;1.70;;;20.80;64.30;;;;;;6259156;22;20620;-71
2022/10/16 11:13:58;;;;;;;5.65;1.50;;;20.80;64.30;;;;;;6258866;22;20815;-76
2022/10/16 11:16:36;;;;;;;9.30;1.60;;;20.80;64.20;;;;;;6249422;22;20023;-73
2022/10/16 11:19:39;;;;;;;10.77;1.55;;;20.80;64.10;;;;;;6238753;22;20016;-74
2022/10/16 11:22:31;;;;;;;7.78;1.70;;;20.80;63.70;;;;;;6237422;22;20058;-75
2022/10/16 11:25:32;;;;;;;4.85;1.33;;;20.70;63.80;;;;;;6237526;22;20125;-74
2022/10/16 11:28:09;;;;;;;5.00;1.60;;;20.70;63.70;;;;;;6263380;22;20020;-75
2022/10/16 11:30:49;;;;;;;10.20;1.63;;;20.70;63.40;;;;;;6235824;22;20592;-75
2022/10/16 11:33:18;;;;;;;9.98;1.90;;;20.70;63.20;;;;;;6237958;22;20622;-79
2022/10/16 11:36:00;;;;;;;8.20;1.90;;;20.70;63.10;;;;;;6237263;22;20343;-77
2022/10/16 11:38:34;;;;;;;8.20;1.83;;;20.70;63.20;;;;;;6264929;22;20024;-79
2022/10/16 11:41:20;;;;;;;7.93;1.80;;;20.70;63.20;;;;;;6238402;22;20328;-80
2022/10/16 11:44:11;;;;;;;10.32;2.00;;;20.70;63.20;;;;;;6237000;22;20022;-77
2022/10/16 11:46:40;;;;;;;11.02;2.38;;;20.70;63.30;;;;;;6238169;22;20797;-77
2022/10/16 11:49:22;;;;;;;7.43;1.92;;;20.80;63.30;;;;;;6238459;22;20016;-79
2022/10/16 11:52:15;;;;;;;6.95;2.00;;;20.80;63.30;;;;;;6254477;22;20019;-76
2022/10/16 11:55:04;;;;;;;6.10;1.67;;;20.80;63.00;;;;;;6230137;22;20050;-78
2022/10/16 11:57:34;;;;;;;11.30;2.03;;;20.80;62.60;;;;;;6259281;22;20051;-78
2022/10/16 12:00:28;;;;;;;9.48;2.13;;;20.80;62.70;;;;;;6259528;22;20015;-78
2022/10/16 12:03:40;;;;;;;5.93;1.55;;;20.90;62.60;;;;;;6258667;22;20024;-76
2022/10/16 12:06:36;;;;;;;11.80;2.00;;;20.90;62.60;;;;;;6079307;23;20025;-76
2022/10/16 12:09:03;;;;;;;7.32;1.67;;;21.00;62.50;;;;;;6080884;23;20085;-77
2022/10/16 12:11:29;;;;;;;9.00;1.45;;;21.00;62.50;;;;;;6189184;22;20304;-79
2022/10/16 12:14:11;;;;;;;9.80;2.00;;;21.10;62.40;;;;;;6230123;22;20456;-77
2022/10/16 12:16:58;;;;;;;6.97;1.92;;;21.10;62.10;;;;;;6227104;22;20175;-77
2022/10/16 12:19:25;;;;;;;10.27;1.90;;;21.20;62.00;;;;;;6229132;22;20106;-78
2022/10/16 12:21:53;;;;;;;6.13;1.85;;;21.20;62.70;;;;;;6230695;22;20026;-77
2022/10/16 12:24:40;;;;;;;8.85;1.60;;;21.20;61.80;;;;;;6229444;22;20022;-78
2022/10/16 12:27:38;;;;;;;7.22;1.50;;;21.30;61.50;;;;;;6257375;22;20065;-76
2022/10/16 12:30:06;;;;;;;6.43;1.80;;;21.30;61.40;;;;;;6230917;22;20024;-78
2022/10/16 12:32:34;;;;;;;6.75;1.73;;;21.40;61.40;;;;;;6257645;22;20023;-77
2022/10/16 12:35:02;;;;;;;7.07;1.60;;;21.40;61.60;;;;;;6257116;22;20105;-78
2022/10/16 12:37:36;;;;;;;5.88;1.60;;;21.40;61.10;;;;;;6258407;22;20431;-76
2022/10/16 12:40:21;;;;;;;6.57;1.50;;;21.40;60.80;;;;;;6256323;22;20179;-76
2022/10/16 12:42:47;;;;;;;6.32;1.60;;;21.40;60.50;;;;;;6230532;22;20023;-77
2022/10/16 12:45:33;;;;;;;8.07;1.70;;;21.50;60.60;;;;;;6228199;22;20018;-77
2022/10/16 12:48:17;;;;;;;6.75;1.70;;;21.40;60.40;;;;;;6257144;22;20599;-74
2022/10/16 12:50:44;;;;;;;9.25;1.88;;;21.40;60.30;;;;;;6228963;22;20027;-80
2022/10/16 12:53:24;;;;;;;6.80;1.48;;;21.50;60.40;;;;;;6254629;22;20012;-75
2022/10/16 12:56:20;;;;;;;5.45;1.35;;;21.50;60.10;;;;;;6254887;22;20016;-73
2022/10/16 12:59:20;;;;;;;6.93;1.40;;;21.40;60.10;;;;;;6203003;22;20456;-75
2022/10/16 13:02:20;;;;;;;6.95;1.75;;;21.50;60.00;;;;;;6094617;22;20660;-73
2022/10/16 13:05:01;;;;;;;6.32;1.63;;;21.50;59.90;;;;;;6228783;22;20027;-73
2022/10/16 13:07:53;;;;;;;8.77;1.67;;;21.50;60.00;;;;;;6225192;22;20034;-73
2022/10/16 13:10:37;;;;;;;5.60;1.60;;;21.50;59.80;;;;;;6254696;22;20026;-74